Time;durP1;ratioP1;P1;durP2;ratioP2;P2;SDS_P1;SDS_P2;PMS_P1;PMS_P2;Temp;Humidity;BMP_temperature;BMP_pressure;BME280_temperature;BME280_humidity;BME280_pressure;Samples;Min_cycle;Max_cycle;Signal;HPM_P1;HPM_P2
2021/11/06 00:01:25;;;;;;;41.50;23.40;;;;;;;;;;5029894;28;20182;-64
2021/11/06 00:03:50;;;;;;;36.07;21.93;;;;;;;;;;5011271;28;20611;-65
2021/11/06 00:06:16;;;;;;;40.07;24.30;;;;;;;;;;5025739;28;20169;-65
2021/11/06 00:08:41;;;;;;;52.30;23.97;;;;;;;;;;5023059;28;20167;-68
2021/11/06 00:11:06;;;;;;;74.33;28.70;;;;;;;;;;5010099;28;20155;-74
2021/11/06 00:13:32;;;;;;;52.10;26.07;;;;;;;;;;5011035;28;20261;-63
2021/11/06 00:15:57;;;;;;;54.43;31.07;;;;;;;;;;5009822;28;20236;-65
2021/11/06 00:18:23;;;;;;;45.70;27.77;;;;;;;;;;5010470;28;20202;-66
2021/11/06 00:20:48;;;;;;;55.97;29.23;;;;;;;;;;5010595;28;20220;-72
2021/11/06 00:23:14;;;;;;;48.90;30.10;;;;;;;;;;5022551;28;20181;-64
2021/11/06 00:25:40;;;;;;;56.07;30.63;;;;;;;;;;5018010;28;20196;-66
2021/11/06 00:28:05;;;;;;;46.90;24.57;;;;;;;;;;5029815;28;20416;-66
2021/11/06 00:30:31;;;;;;;45.60;23.97;;;;;;;;;;5029503;28;20269;-64
2021/11/06 00:32:56;;;;;;;40.33;19.50;;;;;;;;;;5022409;28;20174;-66
2021/11/06 00:35:22;;;;;;;38.10;21.93;;;;;;;;;;5008725;28;20774;-72
2021/11/06 00:37:47;;;;;;;36.93;20.80;;;;;;;;;;5011116;28;20237;-74
2021/11/06 00:40:13;;;;;;;34.67;20.13;;;;;;;;;;5026627;28;20419;-64
2021/11/06 00:42:38;;;;;;;45.10;19.57;;;;;;;;;;5029556;28;20153;-74
2021/11/06 00:45:07;;;;;;;46.60;21.53;;;;;;;;;;5029662;28;20396;-73
2021/11/06 00:47:32;;;;;;;41.67;21.17;;;;;;;;;;5019350;28;20181;-69
2021/11/06 00:49:57;;;;;;;32.53;21.27;;;;;;;;;;5009818;28;20418;-65
2021/11/06 00:52:23;;;;;;;42.10;19.73;;;;;;;;;;5009280;28;20636;-69
2021/11/06 00:54:48;;;;;;;35.97;20.40;;;;;;;;;;5009598;28;20154;-67
2021/11/06 00:57:13;;;;;;;26.30;13.00;;;;;;;;;;5015479;28;20174;-65
2021/11/06 00:59:39;;;;;;;32.63;17.80;;;;;;;;;;5009326;28;20194;-67
2021/11/06 01:02:04;;;;;;;28.17;15.70;;;;;;;;;;5009602;28;20147;-64
2021/11/06 01:04:29;;;;;;;29.60;16.13;;;;;;;;;;5009365;28;20150;-73
2021/11/06 01:06:54;;;;;;;33.47;16.50;;;;;;;;;;5012754;28;20245;-72
2021/11/06 01:09:20;;;;;;;31.63;15.40;;;;;;;;;;5010447;28;20158;-74
2021/11/06 01:11:45;;;;;;;25.17;15.10;;;;;;;;;;5014538;28;20174;-65
2021/11/06 01:14:11;;;;;;;26.53;16.07;;;;;;;;;;5028700;28;20158;-68
2021/11/06 01:16:36;;;;;;;30.20;15.63;;;;;;;;;;5026418;28;20150;-73
2021/11/06 01:19:02;;;;;;;21.67;12.67;;;;;;;;;;5009332;28;20202;-71
2021/11/06 01:21:28;;;;;;;31.03;14.83;;;;;;;;;;5009267;28;20197;-72
2021/11/06 01:23:54;;;;;;;35.70;14.50;;;;;;;;;;5012268;28;20221;-73
2021/11/06 01:26:19;;;;;;;27.47;15.70;;;;;;;;;;5009087;28;20432;-64
2021/11/06 01:28:44;;;;;;;50.33;19.10;;;;;;;;;;5011303;28;20155;-64
2021/11/06 01:31:10;;;;;;;37.13;20.53;;;;;;;;;;5017461;28;20181;-65
2021/11/06 01:33:35;;;;;;;40.13;19.90;;;;;;;;;;5029020;28;20204;-64
2021/11/06 01:36:01;;;;;;;37.03;20.53;;;;;;;;;;5028848;28;20165;-64
2021/11/06 01:38:27;;;;;;;24.90;12.80;;;;;;;;;;5011695;28;20316;-72
2021/11/06 01:40:54;;;;;;;25.73;16.43;;;;;;;;;;5008818;28;20425;-73
2021/11/06 01:43:19;;;;;;;27.90;17.50;;;;;;;;;;5008950;28;20386;-72
2021/11/06 01:45:45;;;;;;;22.00;12.30;;;;;;;;;;5020258;28;20196;-65
2021/11/06 01:48:10;;;;;;;25.30;11.13;;;;;;;;;;5016001;28;20178;-72
2021/11/06 01:50:36;;;;;;;21.60;12.47;;;;;;;;;;5011032;28;20249;-69
2021/11/06 01:53:01;;;;;;;30.17;14.70;;;;;;;;;;5009214;28;20216;-72
2021/11/06 01:55:27;;;;;;;29.40;13.43;;;;;;;;;;5008788;28;20338;-73
2021/11/06 01:57:52;;;;;;;17.07;10.87;;;;;;;;;;5021091;28;20166;-71
2021/11/06 02:00:20;;;;;;;20.40;11.17;;;;;;;;;;5028298;28;20648;-69
2021/11/06 02:02:46;;;;;;;18.63;9.37;;;;;;;;;;5028655;28;20629;-73
2021/11/06 02:05:12;;;;;;;22.70;12.73;;;;;;;;;;5017822;28;20440;-61
2021/11/06 02:07:37;;;;;;;23.27;10.93;;;;;;;;;;5012346;28;20158;-68
2021/11/06 02:10:04;;;;;;;18.30;11.00;;;;;;;;;;5010270;28;20861;-63
2021/11/06 02:12:29;;;;;;;19.13;9.67;;;;;;;;;;5008824;28;20173;-66
2021/11/06 02:14:55;;;;;;;24.30;11.60;;;;;;;;;;5008772;28;20394;-69
2021/11/06 02:17:20;;;;;;;21.97;12.27;;;;;;;;;;5012280;28;20184;-65
2021/11/06 02:19:45;;;;;;;24.07;10.93;;;;;;;;;;5026992;28;20582;-66
2021/11/06 02:22:11;;;;;;;20.60;11.10;;;;;;;;;;5027949;28;20170;-66
2021/11/06 02:24:37;;;;;;;21.73;12.17;;;;;;;;;;5022604;28;20162;-71
2021/11/06 02:27:02;;;;;;;24.77;11.40;;;;;;;;;;5008751;28;20153;-72
2021/11/06 02:29:27;;;;;;;48.57;27.57;;;;;;;;;;5017587;28;20679;-68
2021/11/06 02:31:53;;;;;;;54.77;33.97;;;;;;;;;;5032184;28;20561;-65
2021/11/06 02:34:18;;;;;;;44.80;25.90;;;;;;;;;;5027098;28;20745;-64
2021/11/06 02:36:44;;;;;;;37.13;19.93;;;;;;;;;;5015346;28;20240;-71
2021/11/06 02:39:09;;;;;;;25.53;16.40;;;;;;;;;;5022421;28;20193;-73
2021/11/06 02:41:35;;;;;;;26.23;13.10;;;;;;;;;;5015710;28;20181;-67
2021/11/06 02:44:10;;;;;;;17.60;10.63;;;;;;;;;;5012649;28;20260;-65
2021/11/06 02:46:36;;;;;;;20.10;10.60;;;;;;;;;;5026181;28;20657;-74
2021/11/06 02:49:03;;;;;;;30.53;16.10;;;;;;;;;;5031191;28;20954;-71
2021/11/06 02:51:28;;;;;;;24.97;12.80;;;;;;;;;;5029957;28;20419;-72
2021/11/06 02:53:54;;;;;;;23.87;11.50;;;;;;;;;;5031764;28;20384;-69
2021/11/06 02:56:22;;;;;;;31.03;17.27;;;;;;;;;;5020421;28;20178;-64
2021/11/06 02:58:47;;;;;;;25.37;15.00;;;;;;;;;;5011707;28;20278;-66
2021/11/06 03:01:13;;;;;;;32.90;15.00;;;;;;;;;;5011757;28;20406;-62
2021/11/06 03:03:38;;;;;;;21.93;11.57;;;;;;;;;;5013048;28;20268;-66
2021/11/06 03:06:03;;;;;;;18.43;10.37;;;;;;;;;;5014699;28;20634;-66
2021/11/06 03:08:29;;;;;;;27.10;11.80;;;;;;;;;;5019087;28;20193;-65
2021/11/06 03:10:54;;;;;;;24.50;11.97;;;;;;;;;;5031309;28;20220;-66
2021/11/06 03:13:20;;;;;;;17.97;10.37;;;;;;;;;;5031138;28;20177;-70
2021/11/06 03:15:45;;;;;;;16.67;10.03;;;;;;;;;;5019964;28;20166;-65
2021/11/06 03:18:10;;;;;;;19.87;11.53;;;;;;;;;;5011335;28;20147;-65
2021/11/06 03:20:36;;;;;;;24.17;11.60;;;;;;;;;;5011358;28;20284;-65
2021/11/06 03:23:01;;;;;;;15.13;10.43;;;;;;;;;;5011512;28;20162;-66
2021/11/06 03:25:27;;;;;;;27.40;11.70;;;;;;;;;;5012542;28;20205;-65
2021/11/06 03:27:52;;;;;;;23.60;11.00;;;;;;;;;;5012185;28;20241;-66
2021/11/06 03:30:18;;;;;;;22.00;12.20;;;;;;;;;;5021054;28;20257;-71
2021/11/06 03:32:43;;;;;;;21.07;10.10;;;;;;;;;;5011084;28;20668;-72
2021/11/06 03:35:08;;;;;;;18.17;10.30;;;;;;;;;;5020305;28;20604;-73
2021/11/06 03:37:34;;;;;;;23.10;10.73;;;;;;;;;;5029368;28;20224;-70
2021/11/06 03:39:59;;;;;;;27.87;11.20;;;;;;;;;;5030631;28;20798;-73
2021/11/06 03:42:25;;;;;;;24.97;11.03;;;;;;;;;;5028861;28;20169;-74
2021/11/06 03:44:50;;;;;;;19.90;10.73;;;;;;;;;;5016634;28;20174;-66
2021/11/06 03:47:16;;;;;;;18.97;11.10;;;;;;;;;;5019774;28;20171;-72
2021/11/06 03:49:41;;;;;;;20.47;10.60;;;;;;;;;;5011038;28;20159;-68
2021/11/06 03:52:07;;;;;;;21.20;11.30;;;;;;;;;;5008867;28;20626;-66
2021/11/06 03:54:32;;;;;;;22.73;10.90;;;;;;;;;;5021899;28;20212;-68
2021/11/06 03:56:57;;;;;;;21.40;11.07;;;;;;;;;;5014730;28;20170;-64
2021/11/06 03:59:23;;;;;;;22.00;13.53;;;;;;;;;;5018389;28;20197;-66
2021/11/06 04:01:48;;;;;;;33.83;14.40;;;;;;;;;;5028322;28;20158;-72
2021/11/06 04:04:14;;;;;;;21.43;12.73;;;;;;;;;;5029947;28;20169;-63
2021/11/06 04:06:39;;;;;;;24.27;13.77;;;;;;;;;;5020731;28;20150;-74
2021/11/06 04:09:05;;;;;;;23.20;13.73;;;;;;;;;;5015071;28;20704;-67
2021/11/06 04:11:30;;;;;;;24.27;12.67;;;;;;;;;;5029936;28;20170;-74
2021/11/06 04:13:55;;;;;;;19.80;12.53;;;;;;;;;;5029754;28;20236;-64
2021/11/06 04:16:21;;;;;;;27.07;14.37;;;;;;;;;;5011675;28;20167;-65
2021/11/06 04:18:47;;;;;;;22.80;14.40;;;;;;;;;;5010463;28;20966;-63
2021/11/06 04:21:12;;;;;;;22.30;13.10;;;;;;;;;;5013382;28;20201;-65
2021/11/06 04:23:37;;;;;;;25.00;16.30;;;;;;;;;;5010862;28;20158;-65
2021/11/06 04:26:04;;;;;;;27.60;15.70;;;;;;;;;;5014598;28;20193;-65
2021/11/06 04:28:29;;;;;;;29.63;14.67;;;;;;;;;;5016487;28;20584;-64
2021/11/06 04:30:54;;;;;;;23.20;13.03;;;;;;;;;;5009962;28;20846;-70
2021/11/06 04:33:20;;;;;;;26.33;14.80;;;;;;;;;;5022223;28;20644;-66
2021/11/06 04:35:45;;;;;;;31.13;17.30;;;;;;;;;;5030077;28;20170;-64
2021/11/06 04:38:11;;;;;;;27.70;15.63;;;;;;;;;;5028723;28;20302;-65
2021/11/06 04:40:37;;;;;;;29.73;14.70;;;;;;;;;;5029798;28;20234;-65
2021/11/06 04:43:02;;;;;;;48.73;31.27;;;;;;;;;;5027748;28;20423;-65
2021/11/06 04:45:27;;;;;;;63.97;41.97;;;;;;;;;;5012764;28;20662;-67
2021/11/06 04:47:53;;;;;;;68.57;41.57;;;;;;;;;;5018992;28;20178;-73
2021/11/06 04:50:18;;;;;;;52.60;34.63;;;;;;;;;;5007268;28;20280;-70
2021/11/06 04:52:44;;;;;;;37.23;21.07;;;;;;;;;;5009768;28;20235;-69
2021/11/06 04:55:11;;;;;;;37.70;19.00;;;;;;;;;;5010339;28;20240;-71
2021/11/06 04:57:37;;;;;;;28.40;16.90;;;;;;;;;;5012377;28;20155;-63
2021/11/06 05:00:04;;;;;;;31.57;18.20;;;;;;;;;;5012499;28;20464;-70
2021/11/06 05:02:29;;;;;;;24.20;15.90;;;;;;;;;;5020391;28;20606;-62
2021/11/06 05:04:54;;;;;;;24.43;12.33;;;;;;;;;;5011995;28;20425;-74
2021/11/06 05:07:20;;;;;;;27.07;16.63;;;;;;;;;;5012817;28;20231;-73
2021/11/06 05:09:45;;;;;;;26.93;14.10;;;;;;;;;;5012307;28;20162;-66
2021/11/06 05:12:12;;;;;;;17.77;11.80;;;;;;;;;;5022014;28;22163;-71
2021/11/06 05:14:37;;;;;;;26.70;16.57;;;;;;;;;;5031695;28;20142;-67
2021/11/06 05:17:03;;;;;;;28.67;18.50;;;;;;;;;;5030687;28;20400;-63
2021/11/06 05:19:28;;;;;;;31.57;17.43;;;;;;;;;;5031242;28;20262;-75
2021/11/06 05:21:53;;;;;;;27.70;15.20;;;;;;;;;;5031559;28;20161;-66
2021/11/06 05:24:19;;;;;;;29.17;16.70;;;;;;;;;;5018734;28;20264;-70
2021/11/06 05:26:45;;;;;;;31.40;16.83;;;;;;;;;;5021053;28;20165;-65
2021/11/06 05:29:10;;;;;;;36.03;18.63;;;;;;;;;;5028521;28;20203;-63
2021/11/06 05:31:36;;;;;;;24.70;18.23;;;;;;;;;;5028755;28;20952;-70
2021/11/06 05:34:02;;;;;;;28.60;19.00;;;;;;;;;;5024636;28;20170;-74
2021/11/06 05:36:27;;;;;;;19.83;11.87;;;;;;;;;;5011568;28;20950;-77
2021/11/06 05:38:53;;;;;;;29.50;18.23;;;;;;;;;;5019573;28;20715;-63
2021/11/06 05:41:19;;;;;;;23.73;15.43;;;;;;;;;;5031222;28;20530;-67
2021/11/06 05:43:44;;;;;;;28.87;17.20;;;;;;;;;;5025312;28;21034;-75
2021/11/06 05:46:09;;;;;;;31.33;18.37;;;;;;;;;;5021125;28;20173;-64
2021/11/06 05:48:35;;;;;;;31.13;17.70;;;;;;;;;;5013173;28;20244;-64
2021/11/06 05:51:00;;;;;;;24.67;18.10;;;;;;;;;;5019685;28;20554;-67
2021/11/06 05:53:25;;;;;;;26.43;16.27;;;;;;;;;;5019263;28;20184;-66
2021/11/06 05:55:51;;;;;;;28.70;17.33;;;;;;;;;;5016808;28;20587;-68
2021/11/06 05:58:16;;;;;;;32.77;19.73;;;;;;;;;;5027472;28;20165;-64
2021/11/06 06:00:41;;;;;;;30.30;17.60;;;;;;;;;;5018531;28;20170;-78
2021/11/06 06:03:07;;;;;;;26.67;17.97;;;;;;;;;;5013960;28;20528;-69
2021/11/06 06:05:33;;;;;;;27.80;19.80;;;;;;;;;;5019097;28;20629;-67
2021/11/06 06:07:58;;;;;;;33.73;17.13;;;;;;;;;;5015759;28;20151;-75
2021/11/06 06:10:23;;;;;;;52.17;21.37;;;;;;;;;;5034211;28;20177;-70
2021/11/06 06:12:53;;;;;;;31.90;19.73;;;;;;;;;;5027405;28;20165;-65
2021/11/06 06:15:21;;;;;;;30.40;19.27;;;;;;;;;;5030902;28;20613;-65
2021/11/06 06:17:50;;;;;;;36.93;22.20;;;;;;;;;;5021973;28;20397;-66
2021/11/06 06:20:16;;;;;;;32.03;21.90;;;;;;;;;;5030710;28;20476;-66
2021/11/06 06:22:41;;;;;;;27.20;15.40;;;;;;;;;;5026812;28;20469;-67
2021/11/06 06:25:08;;;;;;;29.27;20.07;;;;;;;;;;5031326;28;20440;-80
2021/11/06 06:27:34;;;;;;;30.67;18.70;;;;;;;;;;5032169;28;20225;-67
2021/11/06 06:29:59;;;;;;;28.50;20.07;;;;;;;;;;5020257;28;20551;-76
2021/11/06 06:32:24;;;;;;;28.80;17.93;;;;;;;;;;5015164;28;20238;-76
2021/11/06 06:34:50;;;;;;;25.83;16.60;;;;;;;;;;5028421;28;20771;-68
2021/11/06 06:37:15;;;;;;;36.93;21.13;;;;;;;;;;5026342;28;20214;-75
2021/11/06 06:39:40;;;;;;;29.47;16.90;;;;;;;;;;5014694;28;20182;-76
2021/11/06 06:42:06;;;;;;;29.50;18.57;;;;;;;;;;5019211;28;20154;-66
2021/11/06 06:44:32;;;;;;;29.27;19.13;;;;;;;;;;5021149;28;20181;-68
2021/11/06 06:46:57;;;;;;;31.13;18.83;;;;;;;;;;5016426;28;20186;-68
2021/11/06 06:49:23;;;;;;;32.73;20.77;;;;;;;;;;5028039;28;20164;-71
2021/11/06 06:51:48;;;;;;;26.97;16.33;;;;;;;;;;5021070;28;20648;-78
2021/11/06 06:54:13;;;;;;;33.00;21.43;;;;;;;;;;5017535;28;20245;-63
2021/11/06 06:56:39;;;;;;;31.90;21.20;;;;;;;;;;5023758;28;20158;-74
2021/11/06 06:59:04;;;;;;;33.63;20.80;;;;;;;;;;5032961;28;20660;-67
2021/11/06 07:01:29;;;;;;;30.37;21.73;;;;;;;;;;5033662;28;20148;-73
2021/11/06 07:03:55;;;;;;;29.70;19.00;;;;;;;;;;5031766;28;20169;-68
2021/11/06 07:06:20;;;;;;;38.27;20.67;;;;;;;;;;5022393;28;20509;-71
2021/11/06 07:08:45;;;;;;;31.20;21.77;;;;;;;;;;5018682;28;20208;-77
2021/11/06 07:11:11;;;;;;;30.17;19.67;;;;;;;;;;5014080;28;20162;-65
2021/11/06 07:13:37;;;;;;;35.33;18.00;;;;;;;;;;5015734;28;20240;-66
2021/11/06 07:16:03;;;;;;;32.50;20.03;;;;;;;;;;5014103;28;20610;-67
2021/11/06 07:18:28;;;;;;;30.57;15.90;;;;;;;;;;5016263;28;20455;-66
2021/11/06 07:20:54;;;;;;;38.80;20.80;;;;;;;;;;5027020;28;20271;-67
2021/11/06 07:23:19;;;;;;;30.83;19.93;;;;;;;;;;5019130;28;20246;-64
2021/11/06 07:25:44;;;;;;;33.20;19.10;;;;;;;;;;5025872;28;20261;-65
2021/11/06 07:28:10;;;;;;;36.80;19.90;;;;;;;;;;5017065;28;20158;-72
2021/11/06 07:30:35;;;;;;;45.37;22.70;;;;;;;;;;5027618;28;20213;-76
2021/11/06 07:33:01;;;;;;;36.33;20.13;;;;;;;;;;5028501;28;20161;-70
2021/11/06 07:35:26;;;;;;;33.73;22.30;;;;;;;;;;5027669;28;20196;-66
2021/11/06 07:37:52;;;;;;;35.53;22.23;;;;;;;;;;5022828;28;20214;-73
2021/11/06 07:40:17;;;;;;;33.27;22.77;;;;;;;;;;5024728;28;20636;-73
2021/11/06 07:42:45;;;;;;;30.57;21.07;;;;;;;;;;5031232;28;20666;-70
2021/11/06 07:45:11;;;;;;;31.43;20.50;;;;;;;;;;5032386;28;20177;-66
2021/11/06 07:47:37;;;;;;;32.80;22.97;;;;;;;;;;5032947;28;20404;-71
2021/11/06 07:50:03;;;;;;;37.87;23.40;;;;;;;;;;5031913;28;20408;-64
2021/11/06 07:52:29;;;;;;;39.50;23.47;;;;;;;;;;5026975;28;20204;-65
2021/11/06 07:54:54;;;;;;;38.10;23.10;;;;;;;;;;5025310;28;20436;-74
2021/11/06 07:57:19;;;;;;;32.50;20.93;;;;;;;;;;5026620;28;20180;-68
2021/11/06 07:59:45;;;;;;;31.23;20.30;;;;;;;;;;5030961;28;20197;-71
2021/11/06 08:02:10;;;;;;;35.67;19.93;;;;;;;;;;5018763;28;20166;-73
2021/11/06 08:04:35;;;;;;;36.10;22.37;;;;;;;;;;5014394;28;20178;-66
2021/11/06 08:07:01;;;;;;;38.97;23.23;;;;;;;;;;5011841;28;20189;-67
2021/11/06 08:09:26;;;;;;;36.73;23.67;;;;;;;;;;5017239;28;20205;-68
2021/11/06 08:11:52;;;;;;;42.97;27.70;;;;;;;;;;5012873;28;20158;-70
2021/11/06 08:14:17;;;;;;;32.93;25.00;;;;;;;;;;5018524;28;20544;-65
2021/11/06 08:16:43;;;;;;;43.20;22.83;;;;;;;;;;5020400;28;20198;-70
2021/11/06 08:19:09;;;;;;;28.30;18.10;;;;;;;;;;5027506;28;20237;-67
2021/11/06 08:21:35;;;;;;;35.37;21.47;;;;;;;;;;5018078;28;20455;-64
2021/11/06 08:24:00;;;;;;;34.07;20.90;;;;;;;;;;5026529;28;20219;-65
2021/11/06 08:26:26;;;;;;;36.57;22.40;;;;;;;;;;5020191;28;20162;-74
2021/11/06 08:28:52;;;;;;;37.80;23.33;;;;;;;;;;5021040;28;20170;-70
2021/11/06 08:31:18;;;;;;;35.73;23.80;;;;;;;;;;5026779;28;20919;-72
2021/11/06 08:33:43;;;;;;;31.07;19.10;;;;;;;;;;5030652;28;21725;-76
2021/11/06 08:36:09;;;;;;;33.97;22.37;;;;;;;;;;5024119;28;20451;-67
2021/11/06 08:38:34;;;;;;;36.57;17.80;;;;;;;;;;5020552;28;20213;-67
2021/11/06 08:41:00;;;;;;;34.60;24.10;;;;;;;;;;5017221;28;20174;-68
2021/11/06 08:43:26;;;;;;;37.77;24.00;;;;;;;;;;5023964;28;20545;-70
2021/11/06 08:45:51;;;;;;;33.20;19.70;;;;;;;;;;5029652;28;20199;-71
2021/11/06 08:48:17;;;;;;;37.60;22.37;;;;;;;;;;5026942;28;20423;-67
2021/11/06 08:50:42;;;;;;;38.60;23.53;;;;;;;;;;5016996;28;20174;-73
2021/11/06 08:53:08;;;;;;;31.73;19.63;;;;;;;;;;5024717;28;20173;-77
2021/11/06 08:55:33;;;;;;;36.13;22.37;;;;;;;;;;5017607;28;20166;-75
2021/11/06 08:57:59;;;;;;;33.03;22.33;;;;;;;;;;5025294;28;20252;-73
2021/11/06 09:00:31;;;;;;;35.93;22.00;;;;;;;;;;5024356;28;20280;-69
2021/11/06 09:02:57;;;;;;;31.77;20.30;;;;;;;;;;5018477;28;20204;-70
2021/11/06 09:05:22;;;;;;;32.57;22.37;;;;;;;;;;5014353;28;20520;-65
2021/11/06 09:07:47;;;;;;;32.30;19.20;;;;;;;;;;5021410;28;20166;-64
2021/11/06 09:10:15;;;;;;;33.03;20.17;;;;;;;;;;5029878;28;20158;-68
2021/11/06 09:12:41;;;;;;;35.00;19.70;;;;;;;;;;5020440;28;20602;-68
2021/11/06 09:15:07;;;;;;;30.10;17.60;;;;;;;;;;5025407;28;20923;-75
2021/11/06 09:17:32;;;;;;;29.67;17.07;;;;;;;;;;5014733;28;20603;-64
2021/11/06 09:19:57;;;;;;;30.30;17.30;;;;;;;;;;5027119;28;20284;-65
2021/11/06 09:22:24;;;;;;;29.00;19.17;;;;;;;;;;5015297;28;20169;-73
2021/11/06 09:24:50;;;;;;;30.17;16.83;;;;;;;;;;5031052;28;20154;-68
2021/11/06 09:27:16;;;;;;;25.43;16.60;;;;;;;;;;5026118;28;20423;-65
2021/11/06 09:29:42;;;;;;;33.47;19.00;;;;;;;;;;5024411;28;20176;-68
2021/11/06 09:32:11;;;;;;;30.30;18.77;;;;;;;;;;5031030;28;20409;-66
2021/11/06 09:34:37;;;;;;;34.17;21.80;;;;;;;;;;5016710;28;20406;-64
2021/11/06 09:37:02;;;;;;;30.77;20.47;;;;;;;;;;5014477;28;20468;-74
2021/11/06 09:39:28;;;;;;;31.40;20.23;;;;;;;;;;5030778;28;20440;-68
2021/11/06 09:41:53;;;;;;;27.60;15.33;;;;;;;;;;5028118;28;20150;-70
2021/11/06 09:44:18;;;;;;;31.70;17.80;;;;;;;;;;5015413;28;20580;-72
2021/11/06 09:46:44;;;;;;;31.77;19.77;;;;;;;;;;5017335;28;20181;-69
2021/11/06 09:49:10;;;;;;;28.10;18.70;;;;;;;;;;5020693;28;20182;-67
2021/11/06 09:51:35;;;;;;;34.40;21.07;;;;;;;;;;5020710;28;20182;-73
2021/11/06 09:54:02;;;;;;;28.67;20.10;;;;;;;;;;5014376;28;20174;-67
2021/11/06 09:56:29;;;;;;;29.30;18.47;;;;;;;;;;5018881;28;20173;-67
2021/11/06 09:58:56;;;;;;;29.23;18.43;;;;;;;;;;5025764;28;20540;-70
2021/11/06 10:01:22;;;;;;;29.93;18.50;;;;;;;;;;5015723;28;20418;-68
2021/11/06 10:03:48;;;;;;;27.03;18.93;;;;;;;;;;5016109;28;20421;-70
2021/11/06 10:06:17;;;;;;;29.57;16.90;;;;;;;;;;5013691;28;20559;-82
2021/11/06 10:08:43;;;;;;;27.37;15.47;;;;;;;;;;5010860;28;20158;-72
2021/11/06 10:11:10;;;;;;;30.00;18.87;;;;;;;;;;5013728;28;20436;-70
2021/11/06 10:13:54;;;;;;;30.30;17.60;;;;;;;;;;5018893;28;20205;-73
2021/11/06 10:16:32;;;;;;;42.20;20.30;;;;;;;;;;5024663;28;20417;-69
2021/11/06 10:19:06;;;;;;;29.00;19.40;;;;;;;;;;5014698;28;20630;-76
2021/11/06 10:21:32;;;;;;;33.63;20.30;;;;;;;;;;5010109;28;20428;-72
2021/11/06 10:23:58;;;;;;;36.33;21.10;;;;;;;;;;5009118;28;20441;-67
2021/11/06 10:26:23;;;;;;;27.93;19.60;;;;;;;;;;5011982;28;20705;-75
2021/11/06 10:29:07;;;;;;;33.07;22.77;;;;;;;;;;5017297;28;20155;-67
2021/11/06 10:31:34;;;;;;;37.43;21.50;;;;;;;;;;5029335;28;20178;-71
2021/11/06 10:34:09;;;;;;;33.10;21.70;;;;;;;;;;5029164;28;20486;-67
2021/11/06 10:36:34;;;;;;;37.77;22.77;;;;;;;;;;5027724;28;20412;-68
2021/11/06 10:39:01;;;;;;;34.93;20.10;;;;;;;;;;5020664;28;20475;-73
2021/11/06 10:41:27;;;;;;;41.70;21.70;;;;;;;;;;5018287;28;20181;-67
2021/11/06 10:43:54;;;;;;;35.53;22.23;;;;;;;;;;5026116;28;20412;-69
2021/11/06 10:46:23;;;;;;;32.47;21.63;;;;;;;;;;5015671;28;20532;-68
2021/11/06 10:48:48;;;;;;;29.17;20.20;;;;;;;;;;5026957;28;20428;-70
2021/11/06 10:51:14;;;;;;;31.67;21.30;;;;;;;;;;5033338;28;20415;-74
2021/11/06 10:53:41;;;;;;;32.20;18.27;;;;;;;;;;5026648;28;20777;-71
2021/11/06 10:56:13;;;;;;;29.13;19.57;;;;;;;;;;5027054;28;20174;-72
2021/11/06 10:58:38;;;;;;;30.87;18.97;;;;;;;;;;5020299;28;20840;-69
2021/11/06 11:01:05;;;;;;;29.30;19.03;;;;;;;;;;5022549;28;20429;-72
2021/11/06 11:03:32;;;;;;;25.67;19.03;;;;;;;;;;5019361;28;20666;-68
2021/11/06 11:05:58;;;;;;;30.90;18.47;;;;;;;;;;5017372;28;20408;-68
2021/11/06 11:08:23;;;;;;;24.70;18.00;;;;;;;;;;5029529;28;20804;-70
2021/11/06 11:10:49;;;;;;;24.50;17.50;;;;;;;;;;5024126;28;20934;-76
2021/11/06 11:13:19;;;;;;;25.33;18.30;;;;;;;;;;5021083;28;20177;-70
2021/11/06 11:15:46;;;;;;;23.70;17.57;;;;;;;;;;5026623;28;20393;-69
2021/11/06 11:18:30;;;;;;;31.57;18.00;;;;;;;;;;5026719;28;20401;-69
2021/11/06 11:21:19;;;;;;;24.90;16.70;;;;;;;;;;5030844;28;20796;-69
2021/11/06 11:24:04;;;;;;;26.90;18.20;;;;;;;;;;5032220;28;20520;-69
2021/11/06 11:26:30;;;;;;;31.60;21.37;;;;;;;;;;5018946;28;20425;-68
2021/11/06 11:28:55;;;;;;;30.10;20.20;;;;;;;;;;5019812;28;20408;-73
2021/11/06 11:31:21;;;;;;;39.10;19.87;;;;;;;;;;5017714;28;20222;-72
2021/11/06 11:33:47;;;;;;;31.20;20.33;;;;;;;;;;5029845;28;20592;-67
2021/11/06 11:36:14;;;;;;;34.80;20.63;;;;;;;;;;5026859;28;20169;-66
2021/11/06 11:38:40;;;;;;;30.20;20.53;;;;;;;;;;5015091;28;20374;-74
2021/11/06 11:41:08;;;;;;;31.23;19.47;;;;;;;;;;5015343;28;20409;-70
2021/11/06 11:43:45;;;;;;;27.67;18.80;;;;;;;;;;5022645;28;20417;-75
2021/11/06 11:46:15;;;;;;;33.80;21.53;;;;;;;;;;5013086;28;20413;-69
2021/11/06 11:48:40;;;;;;;29.80;20.37;;;;;;;;;;5011774;28;20468;-67
2021/11/06 11:51:05;;;;;;;34.60;20.60;;;;;;;;;;5012134;28;20404;-66
2021/11/06 11:53:32;;;;;;;33.07;20.40;;;;;;;;;;5012007;28;20162;-69
2021/11/06 11:56:05;;;;;;;31.30;21.83;;;;;;;;;;5015713;28;20162;-75
2021/11/06 11:58:39;;;;;;;29.53;20.10;;;;;;;;;;5027926;28;20401;-70
2021/11/06 12:01:05;;;;;;;31.33;20.23;;;;;;;;;;5026147;28;20448;-69
2021/11/06 12:03:41;;;;;;;27.20;19.63;;;;;;;;;;5015662;28;20416;-70
2021/11/06 12:06:15;;;;;;;26.50;19.33;;;;;;;;;;5012398;28;20420;-67
2021/11/06 12:08:40;;;;;;;30.37;19.00;;;;;;;;;;5012193;28;20778;-67
2021/11/06 12:11:14;;;;;;;28.07;22.00;;;;;;;;;;5028079;28;20449;-73
2021/11/06 12:13:40;;;;;;;26.13;19.50;;;;;;;;;;5026940;28;20169;-71
2021/11/06 12:16:10;;;;;;;30.73;18.07;;;;;;;;;;5031445;28;20392;-71
2021/11/06 12:18:38;;;;;;;30.73;19.87;;;;;;;;;;5031613;28;20430;-71
2021/11/06 12:23:35;;;;;;;28.63;19.50;;;;;;;;;;5031796;28;20469;-71
2021/11/06 12:26:18;;;;;;;26.37;18.70;;;;;;;;;;5031471;28;20428;-66
2021/11/06 12:28:44;;;;;;;25.03;18.30;;;;;;;;;;5024687;28;20241;-72
2021/11/06 12:31:24;;;;;;;33.07;20.93;;;;;;;;;;5011980;28;20939;-75
2021/11/06 12:33:50;;;;;;;26.30;18.23;;;;;;;;;;5031749;28;20212;-69
2021/11/06 12:36:25;;;;;;;29.83;19.53;;;;;;;;;;5031079;28;20853;-68
2021/11/06 12:38:51;;;;;;;28.40;19.80;;;;;;;;;;5019860;28;20245;-76
2021/11/06 12:41:30;;;;;;;30.60;19.00;;;;;;;;;;5011199;28;20453;-67
2021/11/06 12:43:56;;;;;;;30.57;19.53;;;;;;;;;;5011644;28;20401;-74
2021/11/06 12:46:26;;;;;;;31.00;20.27;;;;;;;;;;5009972;28;21007;-76
2021/11/06 12:48:53;;;;;;;28.20;18.70;;;;;;;;;;5011934;28;20401;-71
2021/11/06 12:51:20;;;;;;;28.90;20.53;;;;;;;;;;5011435;28;20962;-76
2021/11/06 12:53:50;;;;;;;25.93;18.07;;;;;;;;;;5016566;28;20471;-74
2021/11/06 12:56:20;;;;;;;30.03;18.00;;;;;;;;;;5010031;28;20401;-67
2021/11/06 12:58:47;;;;;;;31.83;18.53;;;;;;;;;;5011105;28;20437;-70
2021/11/06 13:01:25;;;;;;;33.73;18.57;;;;;;;;;;5011275;28;20946;-71
2021/11/06 13:03:50;;;;;;;32.67;18.80;;;;;;;;;;5009909;28;20413;-73
2021/11/06 13:06:42;;;;;;;30.60;18.67;;;;;;;;;;5011384;28;20904;-73
2021/11/06 13:09:17;;;;;;;27.27;17.57;;;;;;;;;;5012688;28;20218;-72
2021/11/06 13:12:02;;;;;;;33.10;18.00;;;;;;;;;;5010279;28;20444;-68
2021/11/06 13:14:46;;;;;;;31.67;19.80;;;;;;;;;;5011100;28;20416;-67
2021/11/06 13:17:14;;;;;;;31.03;19.53;;;;;;;;;;5010880;28;20904;-71
2021/11/06 13:19:47;;;;;;;32.13;19.90;;;;;;;;;;5011367;28;20480;-71
2021/11/06 13:22:14;;;;;;;27.57;18.50;;;;;;;;;;5010986;28;20490;-73
2021/11/06 13:24:59;;;;;;;26.87;18.40;;;;;;;;;;5014662;28;20443;-76
2021/11/06 13:27:39;;;;;;;32.37;20.20;;;;;;;;;;5010969;28;20455;-75
2021/11/06 13:30:15;;;;;;;30.63;19.70;;;;;;;;;;5009841;28;20501;-74
2021/11/06 13:32:59;;;;;;;27.40;17.50;;;;;;;;;;5021995;28;20414;-63
2021/11/06 13:35:31;;;;;;;30.13;18.00;;;;;;;;;;5021223;28;20489;-68
2021/11/06 13:38:16;;;;;;;30.53;18.37;;;;;;;;;;5029298;28;20974;-74
2021/11/06 13:40:50;;;;;;;29.73;17.70;;;;;;;;;;5029819;28;20821;-70
2021/11/06 13:43:16;;;;;;;31.77;19.70;;;;;;;;;;5027267;28;20408;-73
2021/11/06 13:45:59;;;;;;;28.47;19.50;;;;;;;;;;5023747;28;20389;-65
2021/11/06 13:48:24;;;;;;;28.10;18.10;;;;;;;;;;5024455;28;20257;-70
2021/11/06 13:50:50;;;;;;;35.13;20.10;;;;;;;;;;5010357;28;20772;-72
2021/11/06 13:53:23;;;;;;;28.43;17.67;;;;;;;;;;5010415;28;20712;-67
2021/11/06 13:55:57;;;;;;;34.00;19.23;;;;;;;;;;5014718;28;20155;-67
2021/11/06 13:58:26;;;;;;;34.50;20.97;;;;;;;;;;5029969;28;20442;-73
2021/11/06 14:00:52;;;;;;;32.30;20.17;;;;;;;;;;5028725;28;20408;-63
2021/11/06 14:03:17;;;;;;;29.80;19.90;;;;;;;;;;5012649;28;20409;-71
2021/11/06 14:05:43;;;;;;;27.40;18.90;;;;;;;;;;5010757;28;20253;-77
2021/11/06 14:08:13;;;;;;;29.83;19.07;;;;;;;;;;5010814;28;20149;-70
2021/11/06 14:10:40;;;;;;;38.87;17.90;;;;;;;;;;5022403;28;20620;-73
2021/11/06 14:13:09;;;;;;;31.37;18.47;;;;;;;;;;5029984;28;20464;-70
2021/11/06 14:15:38;;;;;;;38.47;23.80;;;;;;;;;;5017765;28;20404;-71
2021/11/06 14:18:07;;;;;;;34.10;20.80;;;;;;;;;;5029577;28;20719;-68